Time;durP1;ratioP1;P1;durP2;ratioP2;P2;SDS_P1;SDS_P2;PMS_P1;PMS_P2;Temp;Humidity;BMP_temperature;BMP_pressure;BME280_temperature;BME280_humidity;BME280_pressure;Samples;Min_cycle;Max_cycle;Signal;HPM_P1;HPM_P2
2022/04/03 00:00:50;;;;;;;;;;;10.80;65.70;;;;;;5009601;28;82105;-54
2022/04/03 00:03:15;;;;;;;;;;;10.80;65.60;;;;;;5009171;28;82689;-52
2022/04/03 00:05:43;;;;;;;;;;;10.80;65.80;;;;;;5009400;28;81832;-53
2022/04/03 00:08:10;;;;;;;;;;;10.80;65.70;;;;;;5009275;28;83140;-52
2022/04/03 00:10:36;;;;;;;;;;;10.70;65.70;;;;;;5011492;28;83487;-52
2022/04/03 00:13:02;;;;;;;;;;;10.70;65.70;;;;;;5013334;28;81299;-53
2022/04/03 00:15:28;;;;;;;;;;;10.70;65.70;;;;;;5012830;28;82203;-52
2022/04/03 00:17:54;;;;;;;;;;;10.70;65.70;;;;;;5015291;28;82615;-52
2022/04/03 00:20:20;;;;;;;;;;;10.70;65.70;;;;;;5012127;28;83131;-53
2022/04/03 00:22:48;;;;;;;;;;;10.70;65.80;;;;;;5012516;28;83298;-51
2022/04/03 00:25:14;;;;;;;;;;;10.70;65.70;;;;;;5012565;28;81722;-51
2022/04/03 00:27:40;;;;;;;;;;;10.60;65.70;;;;;;5012495;28;82995;-52
2022/04/03 00:30:07;;;;;;;;;;;10.70;65.70;;;;;;5012611;28;82341;-52
2022/04/03 00:32:33;;;;;;;;;;;10.70;65.60;;;;;;5012500;28;82031;-51
2022/04/03 00:34:59;;;;;;;;;;;10.70;65.70;;;;;;5012554;28;82824;-52
2022/04/03 00:37:25;;;;;;;;;;;10.60;65.50;;;;;;5015749;28;81495;-52
2022/04/03 00:39:50;;;;;;;;;;;10.60;65.70;;;;;;5012374;28;81858;-53
2022/04/03 00:42:16;;;;;;;;;;;10.60;65.90;;;;;;5012364;28;81855;-52
2022/04/03 00:44:42;;;;;;;;;;;10.60;65.90;;;;;;5011719;28;83063;-52
2022/04/03 00:47:08;;;;;;;;;;;10.60;65.80;;;;;;5012232;28;83870;-51
2022/04/03 00:49:34;;;;;;;;;;;10.60;65.80;;;;;;5011934;28;83503;-52
2022/04/03 00:54:44;;;;;;;;;;;10.50;65.90;;;;;;5012495;28;81867;-52
2022/04/03 00:57:10;;;;;;;;;;;10.50;65.90;;;;;;5011897;28;82563;-52
2022/04/03 00:59:36;;;;;;;;;;;10.50;65.90;;;;;;5014791;28;82130;-52
2022/04/03 01:02:02;;;;;;;;;;;10.50;65.90;;;;;;5012413;28;81827;-52
2022/04/03 01:04:28;;;;;;;;;;;10.50;65.80;;;;;;5011941;28;82110;-52
2022/04/03 01:06:54;;;;;;;;;;;10.50;65.80;;;;;;5011920;28;82971;-52
2022/04/03 01:09:20;;;;;;;;;;;10.50;65.80;;;;;;5010870;28;84472;-53
2022/04/03 01:11:46;;;;;;;;;;;10.50;65.80;;;;;;5012262;28;81892;-52
2022/04/03 01:14:11;;;;;;;;;;;10.50;65.90;;;;;;5011797;28;83068;-51
2022/04/03 01:16:38;;;;;;;;;;;10.40;65.80;;;;;;5012001;28;82365;-52
2022/04/03 01:19:04;;;;;;;;;;;10.50;65.90;;;;;;5011787;28;81844;-52
2022/04/03 01:21:30;;;;;;;;;;;10.40;65.80;;;;;;5014166;28;81915;-53
2022/04/03 01:23:55;;;;;;;;;;;10.40;65.80;;;;;;5011918;28;81833;-52
2022/04/03 01:26:23;;;;;;;;;;;10.40;65.80;;;;;;5012353;28;81883;-53
2022/04/03 01:28:51;;;;;;;;;;;10.40;65.90;;;;;;5011386;28;84050;-51
2022/04/03 01:31:17;;;;;;;;;;;10.30;66.00;;;;;;5011700;28;81860;-52
2022/04/03 01:33:43;;;;;;;;;;;10.40;65.90;;;;;;5011169;28;82750;-52
2022/04/03 01:36:10;;;;;;;;;;;10.40;65.90;;;;;;5011308;28;83608;-51
2022/04/03 01:38:36;;;;;;;;;;;10.30;65.90;;;;;;5011581;28;81826;-52
2022/04/03 01:41:01;;;;;;;;;;;10.30;66.00;;;;;;5010560;28;82478;-51
2022/04/03 01:43:27;;;;;;;;;;;10.30;65.80;;;;;;5014006;28;83445;-52
2022/04/03 01:45:53;;;;;;;;;;;10.30;65.80;;;;;;5011695;28;81765;-52
2022/04/03 01:48:18;;;;;;;;;;;10.30;65.80;;;;;;5011312;28;81906;-53
2022/04/03 01:50:45;;;;;;;;;;;10.30;66.00;;;;;;5011653;28;81091;-52
2022/04/03 01:53:12;;;;;;;;;;;10.20;66.00;;;;;;5011390;28;81774;-51
2022/04/03 01:55:38;;;;;;;;;;;10.20;66.00;;;;;;5010858;28;83587;-52
2022/04/03 01:58:08;;;;;;;;;;;10.20;66.10;;;;;;5010590;28;83016;-52
2022/04/03 02:00:34;;;;;;;;;;;10.20;66.10;;;;;;5010748;28;82914;-53
2022/04/03 02:03:00;;;;;;;;;;;10.20;65.90;;;;;;5011009;28;82421;-52
2022/04/03 02:05:25;;;;;;;;;;;10.20;66.00;;;;;;5013722;28;81876;-53
2022/04/03 02:07:51;;;;;;;;;;;10.20;66.10;;;;;;5010731;28;82450;-52
2022/04/03 02:10:17;;;;;;;;;;;10.20;66.10;;;;;;5010848;28;82129;-52
2022/04/03 02:12:43;;;;;;;;;;;10.20;66.00;;;;;;5010851;28;83064;-51
2022/04/03 02:15:10;;;;;;;;;;;10.20;66.00;;;;;;5011184;28;83125;-52
2022/04/03 02:17:36;;;;;;;;;;;10.20;66.10;;;;;;5010882;28;81989;-53
2022/04/03 02:20:02;;;;;;;;;;;10.20;66.00;;;;;;5010876;28;82858;-51
2022/04/03 02:22:28;;;;;;;;;;;10.10;66.20;;;;;;5009886;28;84412;-51
2022/04/03 02:24:54;;;;;;;;;;;10.10;66.10;;;;;;5011069;28;81826;-51
2022/04/03 02:27:19;;;;;;;;;;;10.10;66.00;;;;;;5013274;28;82828;-51
2022/04/03 02:29:45;;;;;;;;;;;10.10;66.10;;;;;;5010932;28;81754;-51
2022/04/03 02:32:11;;;;;;;;;;;10.10;66.10;;;;;;5009736;28;82698;-52
2022/04/03 02:34:37;;;;;;;;;;;10.00;66.20;;;;;;5010345;28;83692;-51
2022/04/03 02:37:02;;;;;;;;;;;10.10;66.10;;;;;;5010593;28;81803;-51
2022/04/03 02:39:28;;;;;;;;;;;10.00;66.00;;;;;;5010855;28;83115;-51
2022/04/03 02:41:54;;;;;;;;;;;10.00;66.10;;;;;;5010578;28;82341;-51
2022/04/03 02:44:19;;;;;;;;;;;10.00;66.00;;;;;;5010402;28;81854;-51
2022/04/03 02:46:45;;;;;;;;;;;10.00;66.10;;;;;;5012325;28;82818;-52
2022/04/03 02:49:11;;;;;;;;;;;10.00;66.10;;;;;;5010332;28;81817;-52
2022/04/03 02:51:37;;;;;;;;;;;10.00;66.10;;;;;;5010206;28;83013;-52
2022/04/03 02:54:02;;;;;;;;;;;10.00;66.00;;;;;;5010315;28;82044;-51
2022/04/03 02:56:28;;;;;;;;;;;10.00;66.00;;;;;;5010484;28;81887;-51
2022/04/03 02:58:54;;;;;;;;;;;10.00;65.90;;;;;;5009245;28;81949;-52
2022/04/03 03:01:20;;;;;;;;;;;10.00;65.90;;;;;;5009996;28;83221;-52
2022/04/03 03:03:45;;;;;;;;;;;10.00;66.10;;;;;;5010587;28;81130;-51
2022/04/03 03:06:11;;;;;;;;;;;10.00;66.00;;;;;;5010190;28;82348;-53
2022/04/03 03:08:37;;;;;;;;;;;9.90;66.00;;;;;;5012456;28;83410;-51
2022/04/03 03:11:03;;;;;;;;;;;9.90;66.00;;;;;;5009517;28;82866;-52
2022/04/03 03:13:29;;;;;;;;;;;9.90;66.00;;;;;;5009885;28;83500;-51
2022/04/03 03:15:55;;;;;;;;;;;9.90;66.00;;;;;;5010311;28;82139;-51
2022/04/03 03:18:20;;;;;;;;;;;9.90;66.00;;;;;;5009930;28;83029;-51
2022/04/03 03:20:46;;;;;;;;;;;9.80;66.00;;;;;;5009704;28;83418;-51
2022/04/03 03:23:12;;;;;;;;;;;9.90;66.00;;;;;;5010031;28;81741;-51
2022/04/03 03:25:37;;;;;;;;;;;9.90;65.90;;;;;;5009906;28;82857;-52
2022/04/03 03:28:03;;;;;;;;;;;9.90;66.00;;;;;;5010000;28;81966;-51
2022/04/03 03:30:29;;;;;;;;;;;9.80;66.00;;;;;;5012525;28;81891;-51
2022/04/03 03:32:54;;;;;;;;;;;9.80;66.10;;;;;;5009601;28;82367;-51
2022/04/03 03:35:20;;;;;;;;;;;9.90;65.90;;;;;;5009101;28;83072;-51
2022/04/03 03:37:46;;;;;;;;;;;9.80;66.00;;;;;;5009871;28;82728;-51
2022/04/03 03:40:14;;;;;;;;;;;9.80;66.00;;;;;;5009410;28;83362;-51
2022/04/03 03:42:41;;;;;;;;;;;9.70;66.10;;;;;;5009580;28;81903;-52
2022/04/03 03:45:08;;;;;;;;;;;9.80;66.10;;;;;;5009351;28;83093;-51
2022/04/03 03:47:34;;;;;;;;;;;9.80;66.00;;;;;;5009408;28;83568;-51
2022/04/03 03:50:00;;;;;;;;;;;9.70;66.00;;;;;;5009355;28;81902;-52
2022/04/03 03:52:26;;;;;;;;;;;9.70;65.90;;;;;;5012455;28;82790;-52
2022/04/03 03:54:53;;;;;;;;;;;9.70;66.00;;;;;;5009613;28;81762;-51
2022/04/03 03:57:18;;;;;;;;;;;9.70;66.10;;;;;;5009257;28;82018;-51
2022/04/03 03:59:44;;;;;;;;;;;9.70;66.00;;;;;;5008264;28;84428;-53
2022/04/03 04:02:09;;;;;;;;;;;9.70;66.50;;;;;;5009406;28;81822;-51
2022/04/03 04:04:35;;;;;;;;;;;9.70;66.00;;;;;;5009337;28;82904;-52
2022/04/03 04:07:01;;;;;;;;;;;9.70;65.90;;;;;;5009010;28;83528;-51
2022/04/03 04:09:27;;;;;;;;;;;9.70;65.90;;;;;;5009115;28;81873;-52
2022/04/03 04:11:52;;;;;;;;;;;9.70;66.00;;;;;;5009562;28;82110;-51
2022/04/03 04:14:18;;;;;;;;;;;9.60;66.00;;;;;;5011668;28;83652;-52
2022/04/03 04:16:46;;;;;;;;;;;9.60;66.10;;;;;;5009868;28;81795;-51
2022/04/03 04:19:13;;;;;;;;;;;9.60;65.90;;;;;;5008933;28;83557;-51
2022/04/03 04:21:39;;;;;;;;;;;9.60;65.90;;;;;;5009028;28;81771;-51
2022/04/03 04:24:04;;;;;;;;;;;9.60;66.10;;;;;;5008446;28;83037;-53
2022/04/03 04:26:30;;;;;;;;;;;9.60;65.90;;;;;;5008876;28;82409;-51
2022/04/03 04:28:55;;;;;;;;;;;9.60;65.90;;;;;;5009187;28;81842;-52
2022/04/03 04:31:21;;;;;;;;;;;9.60;65.90;;;;;;5008975;28;81863;-52
2022/04/03 04:33:47;;;;;;;;;;;9.60;65.90;;;;;;5008731;28;83961;-51
2022/04/03 04:36:13;;;;;;;;;;;9.60;66.00;;;;;;5011635;28;81830;-52
2022/04/03 04:38:38;;;;;;;;;;;9.50;65.90;;;;;;5008808;28;83221;-51
2022/04/03 04:41:04;;;;;;;;;;;9.50;65.80;;;;;;5009289;28;81468;-51
2022/04/03 04:43:31;;;;;;;;;;;9.50;65.90;;;;;;5008921;28;81948;-51
2022/04/03 04:45:57;;;;;;;;;;;9.50;65.90;;;;;;5008633;28;82616;-51
2022/04/03 04:48:22;;;;;;;;;;;9.50;65.90;;;;;;5008089;28;83081;-51
2022/04/03 04:50:49;;;;;;;;;;;9.50;65.90;;;;;;5008775;28;83704;-53
2022/04/03 04:53:15;;;;;;;;;;;9.50;66.00;;;;;;5008447;28;83613;-51
2022/04/03 04:55:41;;;;;;;;;;;9.50;65.80;;;;;;5012550;28;81863;-52
2022/04/03 04:58:06;;;;;;;;;;;9.50;65.80;;;;;;5011484;28;83554;-56
2022/04/03 05:00:32;;;;;;;;;;;9.40;65.90;;;;;;5011763;28;82005;-54
2022/04/03 05:02:58;;;;;;;;;;;9.40;65.80;;;;;;5012074;28;81969;-56
2022/04/03 05:05:24;;;;;;;;;;;9.40;65.80;;;;;;5012459;28;81735;-52
2022/04/03 05:07:59;;;;;;;;;;;9.40;65.80;;;;;;5011937;28;81912;-54
2022/04/03 05:10:25;;;;;;;;;;;9.40;65.70;;;;;;5011707;28;82990;-52
2022/04/03 05:12:52;;;;;;;;;;;9.40;65.90;;;;;;5010529;28;86484;-52
2022/04/03 05:15:18;;;;;;;;;;;9.40;65.80;;;;;;5011853;28;81842;-55
2022/04/03 05:17:44;;;;;;;;;;;9.40;65.70;;;;;;5013967;28;83027;-52
2022/04/03 05:20:11;;;;;;;;;;;9.40;65.50;;;;;;5011465;28;81866;-56
2022/04/03 05:22:37;;;;;;;;;;;9.40;65.60;;;;;;5011711;28;82956;-54
2022/04/03 05:25:04;;;;;;;;;;;9.40;65.70;;;;;;5011161;28;83634;-55
2022/04/03 05:27:30;;;;;;;;;;;9.30;65.80;;;;;;5011803;28;81798;-53
2022/04/03 05:29:56;;;;;;;;;;;9.30;65.80;;;;;;5012107;28;81075;-54
2022/04/03 05:32:26;;;;;;;;;;;9.30;65.60;;;;;;5011067;28;83380;-54
2022/04/03 05:34:52;;;;;;;;;;;9.30;65.70;;;;;;5011312;28;81904;-56
2022/04/03 05:37:17;;;;;;;;;;;9.30;65.70;;;;;;5010671;28;82999;-55
2022/04/03 05:39:43;;;;;;;;;;;9.30;65.70;;;;;;5013760;28;83691;-55
2022/04/03 05:42:09;;;;;;;;;;;9.30;65.70;;;;;;5011325;28;82986;-55
2022/04/03 05:44:35;;;;;;;;;;;9.30;65.70;;;;;;5010886;28;83378;-53
2022/04/03 05:47:01;;;;;;;;;;;9.30;65.70;;;;;;5010963;28;81861;-56
2022/04/03 05:49:26;;;;;;;;;;;9.30;65.80;;;;;;5011221;28;81945;-56
2022/04/03 05:51:53;;;;;;;;;;;9.30;65.70;;;;;;5011276;28;82434;-55
2022/04/03 05:54:18;;;;;;;;;;;9.30;65.50;;;;;;5011295;28;81129;-54
2022/04/03 05:56:44;;;;;;;;;;;9.30;65.40;;;;;;5011440;28;81959;-54
2022/04/03 05:59:10;;;;;;;;;;;9.30;65.20;;;;;;5010531;28;82320;-54
2022/04/03 06:01:35;;;;;;;;;;;9.30;65.30;;;;;;5013234;28;82777;-56
2022/04/03 06:04:01;;;;;;;;;;;9.30;65.50;;;;;;5010490;28;83721;-53
2022/04/03 06:06:26;;;;;;;;;;;9.30;65.50;;;;;;5010691;28;81877;-55
2022/04/03 06:08:52;;;;;;;;;;;9.30;65.50;;;;;;5010831;28;81854;-56
2022/04/03 06:11:20;;;;;;;;;;;9.30;65.50;;;;;;5010896;28;82304;-56
2022/04/03 06:13:46;;;;;;;;;;;9.30;65.40;;;;;;5010801;28;81974;-54
2022/04/03 06:16:12;;;;;;;;;;;9.30;65.30;;;;;;5010903;28;82975;-55
2022/04/03 06:18:37;;;;;;;;;;;9.30;65.40;;;;;;5010916;28;82818;-55
2022/04/03 06:21:03;;;;;;;;;;;9.30;65.30;;;;;;5010651;28;81885;-55
2022/04/03 06:23:29;;;;;;;;;;;9.30;65.30;;;;;;5013539;28;83087;-54
2022/04/03 06:25:55;;;;;;;;;;;9.20;66.00;;;;;;5009851;28;82707;-55
2022/04/03 06:28:21;;;;;;;;;;;9.20;65.30;;;;;;5010743;28;82963;-55
2022/04/03 06:30:47;;;;;;;;;;;9.30;65.30;;;;;;5010334;28;81918;-54
2022/04/03 06:33:13;;;;;;;;;;;9.30;65.10;;;;;;5009585;28;82019;-56
2022/04/03 06:35:38;;;;;;;;;;;9.30;65.20;;;;;;5010250;28;82851;-56
2022/04/03 06:38:04;;;;;;;;;;;9.20;65.30;;;;;;5010241;28;82413;-55
2022/04/03 06:40:33;;;;;;;;;;;9.20;65.20;;;;;;5010523;28;81884;-53
2022/04/03 06:42:58;;;;;;;;;;;9.20;65.10;;;;;;5013273;28;82968;-55
2022/04/03 06:45:26;;;;;;;;;;;9.20;65.20;;;;;;5010205;28;81984;-55
2022/04/03 06:47:52;;;;;;;;;;;9.30;65.20;;;;;;5010116;28;81854;-55
2022/04/03 06:50:18;;;;;;;;;;;9.20;65.30;;;;;;5009121;28;84086;-54
2022/04/03 06:52:44;;;;;;;;;;;9.20;65.20;;;;;;5009992;28;81949;-52
2022/04/03 06:55:10;;;;;;;;;;;9.20;65.10;;;;;;5010060;28;83174;-52
2022/04/03 06:57:36;;;;;;;;;;;9.20;65.10;;;;;;5009440;28;82621;-52
2022/04/03 07:00:05;;;;;;;;;;;9.20;65.00;;;;;;5010127;28;81820;-55
2022/04/03 07:02:31;;;;;;;;;;;9.30;65.00;;;;;;5010321;28;83004;-53
2022/04/03 07:04:56;;;;;;;;;;;9.30;64.80;;;;;;5012730;28;82688;-54
2022/04/03 07:07:22;;;;;;;;;;;9.20;65.00;;;;;;5010501;28;81735;-54
2022/04/03 07:09:48;;;;;;;;;;;9.30;64.80;;;;;;5009490;28;83346;-55
2022/04/03 07:12:14;;;;;;;;;;;9.30;64.80;;;;;;5010087;28;82294;-55
2022/04/03 07:14:40;;;;;;;;;;;9.20;64.80;;;;;;5009227;28;82808;-55
2022/04/03 07:17:05;;;;;;;;;;;9.30;64.80;;;;;;4991725;28;84946;-54
2022/04/03 07:19:31;;;;;;;;;;;9.20;64.80;;;;;;5009581;28;81931;-55
2022/04/03 07:21:57;;;;;;;;;;;9.30;64.80;;;;;;5009860;28;81804;-51
2022/04/03 07:24:24;;;;;;;;;;;9.30;64.80;;;;;;5009801;28;82572;-55
2022/04/03 07:26:49;;;;;;;;;;;9.20;64.70;;;;;;5012405;28;82269;-53
2022/04/03 07:29:15;;;;;;;;;;;9.20;64.80;;;;;;5009649;28;82875;-54
2022/04/03 07:31:41;;;;;;;;;;;9.20;64.70;;;;;;5010006;28;81042;-53
2022/04/03 07:34:07;;;;;;;;;;;9.20;64.80;;;;;;5009801;28;81903;-52
2022/04/03 07:36:32;;;;;;;;;;;9.20;64.80;;;;;;5009573;28;81820;-55
2022/04/03 07:38:58;;;;;;;;;;;9.20;64.80;;;;;;5008782;28;82781;-55
2022/04/03 07:41:23;;;;;;;;;;;9.20;64.70;;;;;;5009289;28;83646;-55
2022/04/03 07:43:49;;;;;;;;;;;9.20;64.70;;;;;;5009285;28;82416;-55
2022/04/03 07:46:17;;;;;;;;;;;9.20;64.60;;;;;;5009590;28;81751;-56
2022/04/03 07:48:43;;;;;;;;;;;9.20;64.70;;;;;;5011701;28;83111;-55
2022/04/03 07:51:09;;;;;;;;;;;9.20;64.60;;;;;;5009108;28;81834;-54
2022/04/03 07:53:34;;;;;;;;;;;9.20;64.70;;;;;;5009021;28;83193;-55
2022/04/03 07:56:00;;;;;;;;;;;9.10;64.60;;;;;;5009744;28;82036;-54
2022/04/03 07:58:25;;;;;;;;;;;9.20;64.70;;;;;;5008535;28;81784;-56
2022/04/03 08:00:51;;;;;;;;;;;9.10;64.70;;;;;;5009171;28;81908;-55
2022/04/03 08:03:17;;;;;;;;;;;9.20;64.80;;;;;;5008039;28;84459;-54
2022/04/03 08:05:42;;;;;;;;;;;9.10;64.50;;;;;;5009277;28;81887;-53
2022/04/03 08:08:08;;;;;;;;;;;9.10;64.60;;;;;;5009252;28;81863;-55
2022/04/03 08:10:34;;;;;;;;;;;9.10;64.50;;;;;;5011431;28;83507;-53
2022/04/03 08:13:00;;;;;;;;;;;9.10;64.50;;;;;;5009100;28;82799;-54
2022/04/03 08:15:25;;;;;;;;;;;9.10;64.50;;;;;;4991136;28;83631;-55
2022/04/03 08:17:51;;;;;;;;;;;9.10;64.50;;;;;;5008828;28;81962;-55
2022/04/03 08:20:17;;;;;;;;;;;9.10;64.50;;;;;;5009355;28;82291;-54
2022/04/03 08:22:46;;;;;;;;;;;9.10;64.60;;;;;;5008609;28;82718;-54
2022/04/03 08:25:12;;;;;;;;;;;9.10;64.60;;;;;;5009093;28;81847;-55
2022/04/03 08:27:42;;;;;;;;;;;9.10;64.50;;;;;;5008568;28;82775;-55
2022/04/03 08:30:10;;;;;;;;;;;9.10;64.50;;;;;;5008705;28;83595;-54
2022/04/03 08:32:35;;;;;;;;;;;9.10;64.50;;;;;;5014974;28;81832;-52
2022/04/03 08:35:01;;;;;;;;;;;9.00;64.50;;;;;;5012197;28;81762;-53
2022/04/03 08:37:28;;;;;;;;;;;9.10;64.40;;;;;;5012369;28;81845;-55
2022/04/03 08:39:53;;;;;;;;;;;9.10;64.40;;;;;;5012166;28;82892;-54
2022/04/03 08:42:19;;;;;;;;;;;9.10;64.60;;;;;;5012211;28;82343;-55
2022/04/03 08:44:44;;;;;;;;;;;9.10;64.40;;;;;;5012995;28;81130;-55
2022/04/03 08:47:12;;;;;;;;;;;9.00;64.30;;;;;;5012427;28;81842;-52
2022/04/03 08:49:39;;;;;;;;;;;9.10;64.40;;;;;;5011668;28;83244;-53
2022/04/03 08:52:06;;;;;;;;;;;9.00;64.30;;;;;;5014084;28;82884;-56
2022/04/03 08:54:31;;;;;;;;;;;9.10;64.40;;;;;;5011596;28;83461;-55
2022/04/03 08:56:57;;;;;;;;;;;9.10;64.20;;;;;;5011912;28;81804;-55
2022/04/03 08:59:23;;;;;;;;;;;9.10;64.40;;;;;;5011747;28;82088;-55
2022/04/03 09:01:49;;;;;;;;;;;9.10;64.30;;;;;;5011912;28;82982;-54
2022/04/03 09:04:17;;;;;;;;;;;9.10;64.20;;;;;;5011588;28;81937;-56
2022/04/03 09:06:55;;;;;;;;;;;9.10;64.40;;;;;;5011727;28;82917;-54
2022/04/03 09:09:22;;;;;;;;;;;9.00;64.20;;;;;;5011954;28;82783;-55
2022/04/03 09:12:05;;;;;;;;;;;9.00;64.50;;;;;;5011499;28;81843;-55
2022/04/03 09:14:30;;;;;;;;;;;9.00;64.40;;;;;;5014194;28;83083;-53
2022/04/03 09:16:56;;;;;;;;;;;9.00;64.40;;;;;;5011123;28;82715;-53
2022/04/03 09:19:34;;;;;;;;;;;9.00;64.30;;;;;;5011884;28;82632;-54
2022/04/03 09:22:01;;;;;;;;;;;9.00;64.40;;;;;;5011236;28;83620;-53
2022/04/03 09:24:27;;;;;;;;;;;9.00;64.40;;;;;;5011713;28;81820;-52
2022/04/03 09:27:00;;;;;;;;;;;9.00;64.40;;;;;;5011501;28;82871;-55
2022/04/03 09:29:26;;;;;;;;;;;9.00;64.50;;;;;;5010884;28;83824;-54
2022/04/03 09:32:01;;;;;;;;;;;9.00;64.40;;;;;;5011225;28;81816;-55
2022/04/03 09:34:28;;;;;;;;;;;9.00;64.20;;;;;;5011704;28;83054;-55
2022/04/03 09:37:06;;;;;;;;;;;9.00;64.10;;;;;;5013768;28;83454;-53
2022/04/03 09:39:31;;;;;;;;;;;9.00;64.00;;;;;;5011230;28;82716;-55
2022/04/03 09:42:04;;;;;;;;;;;9.10;64.00;;;;;;5009952;28;84335;-55
2022/04/03 09:44:40;;;;;;;;;;;9.00;64.10;;;;;;5011000;28;81828;-54
2022/04/03 09:47:29;;;;;;;;;;;9.00;64.20;;;;;;5011137;28;83091;-55
2022/04/03 09:49:56;;;;;;;;;;;9.00;64.40;;;;;;5010753;28;83439;-54
2022/04/03 09:52:37;;;;;;;;;;;9.00;64.10;;;;;;5011002;28;81915;-55
2022/04/03 09:55:07;;;;;;;;;;;9.00;64.20;;;;;;5011141;28;82296;-56
2022/04/03 09:57:32;;;;;;;;;;;9.00;64.30;;;;;;5010565;28;82291;-55
2022/04/03 09:59:58;;;;;;;;;;;9.00;64.30;;;;;;5013979;28;81091;-55
2022/04/03 10:02:24;;;;;;;;;;;9.00;64.20;;;;;;5010903;28;82464;-53
2022/04/03 10:04:51;;;;;;;;;;;9.00;63.80;;;;;;5010821;28;81788;-53
2022/04/03 10:07:17;;;;;;;;;;;9.00;64.10;;;;;;5010339;28;82842;-55
2022/04/03 10:09:47;;;;;;;;;;;9.00;64.10;;;;;;5010244;28;83481;-54
2022/04/03 10:12:20;;;;;;;;;;;9.00;63.90;;;;;;5010836;28;81842;-55
2022/04/03 10:14:47;;;;;;;;;;;9.00;64.10;;;;;;5010529;28;82366;-52
2022/04/03 10:17:13;;;;;;;;;;;9.00;64.10;;;;;;5009445;28;82605;-56
2022/04/03 10:19:39;;;;;;;;;;;9.00;64.10;;;;;;5010626;28;81846;-55
2022/04/03 10:22:07;;;;;;;;;;;9.00;64.10;;;;;;5013143;28;83042;-53
2022/04/03 10:24:34;;;;;;;;;;;9.00;64.20;;;;;;5010812;28;81124;-55
2022/04/03 10:27:09;;;;;;;;;;;9.00;64.20;;;;;;5010414;28;82203;-55
2022/04/03 10:29:38;;;;;;;;;;;9.00;64.10;;;;;;5010211;28;82749;-55
2022/04/03 10:32:04;;;;;;;;;;;9.00;64.00;;;;;;5009855;28;82814;-56
2022/04/03 10:34:30;;;;;;;;;;;9.00;64.10;;;;;;5010576;28;82659;-54
2022/04/03 10:36:56;;;;;;;;;;;9.00;64.10;;;;;;5010179;28;82368;-56
2022/04/03 10:39:24;;;;;;;;;;;9.00;64.20;;;;;;5010465;28;81837;-52
2022/04/03 10:41:49;;;;;;;;;;;9.00;64.10;;;;;;5010329;28;82842;-56
2022/04/03 10:44:19;;;;;;;;;;;9.00;64.10;;;;;;5012829;28;82797;-55
2022/04/03 10:47:03;;;;;;;;;;;9.00;64.30;;;;;;5010312;28;82865;-56
2022/04/03 10:49:29;;;;;;;;;;;9.00;64.10;;;;;;5010288;28;81825;-55
2022/04/03 10:52:02;;;;;;;;;;;9.00;64.20;;;;;;5010344;28;81767;-53
2022/04/03 10:54:28;;;;;;;;;;;9.00;64.20;;;;;;5009064;28;82979;-53
2022/04/03 10:57:14;;;;;;;;;;;9.00;64.10;;;;;;5009183;28;83416;-55
2022/04/03 10:59:39;;;;;;;;;;;9.00;64.00;;;;;;5009118;28;81921;-55
2022/04/03 11:02:14;;;;;;;;;;;9.00;64.00;;;;;;5010287;28;81834;-53
2022/04/03 11:04:40;;;;;;;;;;;9.00;64.10;;;;;;5012459;28;83223;-51
2022/04/03 11:07:13;;;;;;;;;;;9.00;64.80;;;;;;5009901;28;82712;-55
2022/04/03 11:09:45;;;;;;;;;;;9.00;64.30;;;;;;5009959;28;82311;-54
2022/04/03 11:12:11;;;;;;;;;;;9.00;64.20;;;;;;5009936;28;81825;-56
2022/04/03 11:14:55;;;;;;;;;;;9.00;64.00;;;;;;5010396;28;82598;-56
2022/04/03 11:17:39;;;;;;;;;;;9.00;64.10;;;;;;5009653;28;83459;-55
2022/04/03 11:20:05;;;;;;;;;;;9.00;64.20;;;;;;5010220;28;82040;-52
2022/04/03 11:22:31;;;;;;;;;;;9.00;64.20;;;;;;5009285;28;82710;-55
2022/04/03 11:24:57;;;;;;;;;;;9.00;64.30;;;;;;5009451;28;83463;-55
2022/04/03 11:27:22;;;;;;;;;;;9.00;64.30;;;;;;5012162;28;81824;-56
2022/04/03 11:29:49;;;;;;;;;;;9.00;64.80;;;;;;5009187;28;83470;-56
2022/04/03 11:32:15;;;;;;;;;;;9.00;64.10;;;;;;5009289;28;81860;-54
2022/04/03 11:34:41;;;;;;;;;;;9.00;64.00;;;;;;5009858;28;81961;-58
2022/04/03 11:37:10;;;;;;;;;;;9.10;63.80;;;;;;5009700;28;82888;-53
2022/04/03 11:39:39;;;;;;;;;;;9.10;63.80;;;;;;5009946;28;81180;-56
2022/04/03 11:42:07;;;;;;;;;;;9.10;64.00;;;;;;5009426;28;81971;-53
2022/04/03 11:44:34;;;;;;;;;;;9.10;63.90;;;;;;5009038;28;83480;-54
2022/04/03 11:47:00;;;;;;;;;;;9.10;63.80;;;;;;5008743;28;82888;-53
2022/04/03 11:49:28;;;;;;;;;;;9.10;64.00;;;;;;5326618;23;83769;-52
2022/04/03 11:52:14;;;;;;;;;;;9.10;64.00;;;;;;4949633;28;81975;-51
2022/04/03 11:54:53;;;;;;;;;;;9.10;64.00;;;;;;4950030;28;81780;-55
2022/04/03 11:57:18;;;;;;;;;;;9.10;64.00;;;;;;4950628;28;82903;-51
2022/04/03 11:59:44;;;;;;;;;;;9.10;63.90;;;;;;4949401;28;82060;-53
2022/04/03 12:02:15;;;;;;;;;;;9.10;64.00;;;;;;4949957;28;83034;-55
2022/04/03 12:04:41;;;;;;;;;;;9.10;64.00;;;;;;4951421;28;82673;-55
2022/04/03 12:07:12;;;;;;;;;;;9.10;64.00;;;;;;4953762;28;82100;-52
2022/04/03 12:09:40;;;;;;;;;;;9.10;64.00;;;;;;4953731;28;81933;-56
2022/04/03 12:12:06;;;;;;;;;;;9.10;64.10;;;;;;4955399;28;83829;-55
2022/04/03 12:14:31;;;;;;;;;;;9.10;64.10;;;;;;4953703;28;82544;-53
2022/04/03 12:16:59;;;;;;;;;;;9.10;64.20;;;;;;4953497;28;82214;-51
2022/04/03 12:19:24;;;;;;;;;;;9.10;64.20;;;;;;4953326;28;81986;-55
2022/04/03 12:21:57;;;;;;;;;;;9.10;64.20;;;;;;4953674;28;83020;-52
2022/04/03 12:24:27;;;;;;;;;;;9.10;64.20;;;;;;4953236;28;82620;-52
2022/04/03 12:27:00;;;;;;;;;;;9.10;64.10;;;;;;4952875;28;81999;-54
2022/04/03 12:29:27;;;;;;;;;;;9.10;64.20;;;;;;4953878;28;81761;-53
2022/04/03 12:32:03;;;;;;;;;;;9.10;64.00;;;;;;4953364;28;81942;-55
2022/04/03 12:34:30;;;;;;;;;;;9.10;63.70;;;;;;4956314;28;81755;-55
2022/04/03 12:36:56;;;;;;;;;;;9.20;63.90;;;;;;4952388;28;84385;-54
2022/04/03 12:39:32;;;;;;;;;;;9.20;63.80;;;;;;4953466;28;81896;-55
2022/04/03 12:42:15;;;;;;;;;;;9.10;63.30;;;;;;4953223;28;82341;-55
2022/04/03 12:44:42;;;;;;;;;;;9.10;63.70;;;;;;4952835;28;82863;-53
2022/04/03 12:47:18;;;;;;;;;;;9.20;63.60;;;;;;4953027;28;82038;-55
2022/04/03 12:49:44;;;;;;;;;;;9.20;63.60;;;;;;4952736;28;82079;-55
2022/04/03 12:52:10;;;;;;;;;;;9.20;63.80;;;;;;4952765;28;83789;-56
2022/04/03 12:54:42;;;;;;;;;;;9.20;63.80;;;;;;4953471;28;81124;-55
2022/04/03 13:00:13;;;;;;;;;;;9.20;63.90;;;;;;4952855;28;81859;-54
2022/04/03 13:02:42;;;;;;;;;;;9.20;63.80;;;;;;4952470;28;83139;-56
2022/04/03 13:05:12;;;;;;;;;;;9.20;63.90;;;;;;4952600;28;82847;-54
2022/04/03 13:07:37;;;;;;;;;;;9.20;64.00;;;;;;4952906;28;81733;-53
2022/04/03 13:10:03;;;;;;;;;;;9.20;64.00;;;;;;4952804;28;81842;-53
2022/04/03 13:12:28;;;;;;;;;;;9.20;63.80;;;;;;4952455;28;82359;-55
2022/04/03 13:14:55;;;;;;;;;;;9.20;63.80;;;;;;4952688;28;81863;-52
2022/04/03 13:17:21;;;;;;;;;;;9.20;64.40;;;;;;4954401;28;82174;-54
2022/04/03 13:19:46;;;;;;;;;;;9.20;63.70;;;;;;4953348;28;81139;-52
2022/04/03 13:22:12;;;;;;;;;;;9.20;63.60;;;;;;4952554;28;81801;-56
2022/04/03 13:24:38;;;;;;;;;;;9.20;63.80;;;;;;4952343;28;82846;-53
2022/04/03 13:27:04;;;;;;;;;;;9.20;63.50;;;;;;4951957;28;82783;-54
2022/04/03 13:29:32;;;;;;;;;;;9.20;63.70;;;;;;4952543;28;82731;-55
2022/04/03 13:31:58;;;;;;;;;;;9.20;63.30;;;;;;4952340;28;83765;-51
2022/04/03 13:34:24;;;;;;;;;;;9.20;63.60;;;;;;4952632;28;81871;-55
2022/04/03 13:36:50;;;;;;;;;;;9.20;63.80;;;;;;4952051;28;82801;-53
2022/04/03 13:39:16;;;;;;;;;;;9.20;63.40;;;;;;4955062;28;82512;-56
2022/04/03 13:41:42;;;;;;;;;;;9.20;62.90;;;;;;4952290;28;82784;-55
2022/04/03 13:44:08;;;;;;;;;;;9.30;63.50;;;;;;4952928;28;82042;-53
2022/04/03 13:46:34;;;;;;;;;;;9.20;63.50;;;;;;4952179;28;81799;-55
2022/04/03 13:49:00;;;;;;;;;;;9.20;63.30;;;;;;4952186;28;81957;-54
2022/04/03 13:51:26;;;;;;;;;;;9.20;63.50;;;;;;4951397;28;83898;-55
2022/04/03 13:53:52;;;;;;;;;;;9.20;63.40;;;;;;4952195;28;81845;-56
2022/04/03 13:56:19;;;;;;;;;;;9.20;63.20;;;;;;4952283;28;81845;-54
2022/04/03 13:58:45;;;;;;;;;;;9.20;63.30;;;;;;4951913;28;82311;-55
2022/04/03 14:01:11;;;;;;;;;;;9.20;63.40;;;;;;4954604;28;81873;-54
2022/04/03 14:03:37;;;;;;;;;;;9.20;63.30;;;;;;4952286;28;82422;-55
2022/04/03 14:06:03;;;;;;;;;;;9.20;63.50;;;;;;4952184;28;81913;-56
2022/04/03 14:08:29;;;;;;;;;;;9.20;63.60;;;;;;4952708;28;81799;-55
2022/04/03 14:10:55;;;;;;;;;;;9.20;63.70;;;;;;4951309;28;83564;-53
2022/04/03 14:13:30;;;;;;;;;;;9.20;63.70;;;;;;4951957;28;81868;-51
2022/04/03 14:15:56;;;;;;;;;;;9.20;63.70;;;;;;4950944;28;82812;-55
2022/04/03 14:18:24;;;;;;;;;;;9.20;63.70;;;;;;4951360;28;82491;-52
2022/04/03 14:20:51;;;;;;;;;;;9.20;63.70;;;;;;4951633;28;81846;-54
2022/04/03 14:23:17;;;;;;;;;;;9.20;63.70;;;;;;4954044;28;82000;-55
2022/04/03 14:25:42;;;;;;;;;;;9.20;63.70;;;;;;4951648;28;82224;-55
2022/04/03 14:28:08;;;;;;;;;;;9.20;63.80;;;;;;4950321;28;82981;-55
2022/04/03 14:30:34;;;;;;;;;;;9.20;63.90;;;;;;4951397;28;81825;-55